Taurus — WDB5562 — position and weather

sailwx.info

Track history (hours):
 
Tides and Currents Weather Stations Pressure Air Temp Water Temp Dewpoint Dewpoint Depression Visibility Wind Speed Wind Dir Waves Ship Positions

Taurus

Owner: Kirby Offshore Marine, LLC, Seattle, WA. More information available from US FCC via Universal Licensing System and Coast Guard Vessel Documentation Center.

Last reported at 2017-Mar-23 12:34 UTC. Time now 2017-Mar-23 12:34 UTC.
Position N 39°59' W 075°05'.

Length 24 m.

Type: Ship (hazmat cat B). MMSI: 366910990.

Date/timePositionNaut miles runAvg speedWind from/ knotsBaromVisibWave heightAir tempDewpointWater temp
2017-Mar-23 12:34N 39°59' W 075°05'0 0.0
2017-Mar-23 11:33N 39°59' W 075°05'0 0.0
2017-Mar-23 10:34N 39°59' W 075°05'5 5.3
2017-Mar-23 09:34N 39°54' W 075°08'3 0.2
2017-Mar-22 18:10N 39°54' W 075°12'0 0.1
2017-Mar-22 17:33N 39°54' W 075°12'4 3.7
2017-Mar-22 16:33N 39°56' W 075°08'4 4.1
2017-Mar-22 15:33N 39°59' W 075°05'0 0.0
2017-Mar-22 14:33N 39°59' W 075°05'0 0.3
2017-Mar-22 13:33N 39°59' W 075°04'0 0.2
2017-Mar-22 11:27N 39°59' W 075°05'0 0.0
2017-Mar-22 10:33N 39°59' W 075°05'  
Track history (hours):
 
Tides and Currents Weather Stations Pressure Air Temp Water Temp Dewpoint Dewpoint Depression Visibility Wind Speed Wind Dir Waves Ship Positions

Taurus

Owner: Kirby Offshore Marine, LLC, Seattle, WA. More information available from US FCC via Universal Licensing System and Coast Guard Vessel Documentation Center.

Last reported at 2017-Mar-23 12:34 UTC. Time now 2017-Mar-23 12:34 UTC.
Position N 39°59' W 075°05'.

Length 24 m.

Type: Ship (hazmat cat B). MMSI: 366910990.

Date/timePositionNaut miles runAvg speedWind from/ knotsBaromVisibWave heightAir tempDewpointWater temp
2017-Mar-23 12:34N 39°59' W 075°05'0 0.0
2017-Mar-23 11:33N 39°59' W 075°05'0 0.0
2017-Mar-23 10:34N 39°59' W 075°05'5 5.3
2017-Mar-23 09:34N 39°54' W 075°08'3 0.2
2017-Mar-22 18:10N 39°54' W 075°12'0 0.1
2017-Mar-22 17:33N 39°54' W 075°12'4 3.7
2017-Mar-22 16:33N 39°56' W 075°08'4 4.1
2017-Mar-22 15:33N 39°59' W 075°05'0 0.0
2017-Mar-22 14:33N 39°59' W 075°05'0 0.3
2017-Mar-22 13:33N 39°59' W 075°04'0 0.2
2017-Mar-22 11:27N 39°59' W 075°05'0 0.0
2017-Mar-22 10:33N 39°59' W 075°05'  

Dump ship's entire track history